Time;durP1;ratioP1;P1;durP2;ratioP2;P2;SDS_P1;SDS_P2;PMS_P1;PMS_P2;Temp;Humidity;BMP_temperature;BMP_pressure;BME280_temperature;BME280_humidity;BME280_pressure;Samples;Min_cycle;Max_cycle;Signal;HPM_P1;HPM_P2
2022/07/27 00:00:41;;;;;;;11.95;1.83;;;;;;;22.49;45.08;102012.16;4988015;28;20034;-74
2022/07/27 00:03:06;;;;;;;7.68;1.73;;;;;;;22.48;45.55;102013.25;4989485;28;20413;-73
2022/07/27 00:05:32;;;;;;;10.00;1.70;;;;;;;22.39;46.23;102010.25;4972564;28;20038;-75
2022/07/27 00:07:57;;;;;;;6.32;2.08;;;;;;;22.41;46.02;102013.53;4969788;28;20043;-74
2022/07/27 00:10:22;;;;;;;7.30;1.20;;;;;;;22.29;45.96;102018.47;4985010;28;20039;-74
2022/07/27 00:12:48;;;;;;;5.63;1.60;;;;;;;22.26;46.60;102010.81;4969683;28;20105;-75
2022/07/27 00:15:13;;;;;;;12.88;1.92;;;;;;;22.60;44.83;102008.34;4970006;28;20031;-74
2022/07/27 00:17:39;;;;;;;5.78;1.52;;;;;;;22.70;44.73;101997.38;4970010;28;20046;-76
2022/07/27 00:20:05;;;;;;;7.57;1.60;;;;;;;22.53;45.81;101997.63;4971857;28;20039;-74
2022/07/27 00:22:30;;;;;;;12.43;1.90;;;;;;;22.47;45.04;101995.16;4981663;28;20622;-73
2022/07/27 00:24:56;;;;;;;2.45;1.30;;;;;;;22.68;45.09;101997.63;4992886;28;20038;-73
2022/07/27 00:27:21;;;;;;;4.80;1.48;;;;;;;22.61;44.80;102002.59;4991035;28;20081;-73
2022/07/27 00:29:47;;;;;;;7.75;1.90;;;;;;;22.69;44.94;102009.41;4992407;28;20101;-73
2022/07/27 00:32:12;;;;;;;5.20;1.40;;;;;;;22.69;45.08;102012.16;4992362;28;20061;-75
2022/07/27 00:34:37;;;;;;;3.42;1.50;;;;;;;22.74;45.02;101994.91;4992334;28;20038;-73
2022/07/27 00:37:03;;;;;;;6.57;1.98;;;;;;;22.78;44.78;102013.22;5007209;28;20538;-75
2022/07/27 00:39:29;;;;;;;3.28;1.20;;;;;;;22.53;45.96;102010.50;4992131;28;20077;-74
2022/07/27 00:41:54;;;;;;;2.45;1.35;;;;;;;22.53;45.63;102011.34;4990754;28;20042;-75
2022/07/27 00:44:31;;;;;;;4.57;0.98;;;;;;;22.59;44.97;102015.75;4992768;28;20033;-74
2022/07/27 00:46:58;;;;;;;1.50;1.17;;;;;;;22.46;45.00;102013.53;4992527;28;20061;-75
2022/07/27 00:49:25;;;;;;;5.95;1.92;;;;;;;22.52;45.01;102009.72;4992448;28;20096;-74
2022/07/27 00:51:52;;;;;;;6.47;1.40;;;;;;;22.25;46.07;102011.09;4992127;28;20519;-76
2022/07/27 00:54:18;;;;;;;6.20;1.55;;;;;;;22.55;45.33;102013.78;4992685;28;20110;-74
2022/07/27 00:56:44;;;;;;;6.47;1.58;;;;;;;22.63;44.99;102013.25;4991746;28;20039;-76
2022/07/27 00:59:12;;;;;;;5.15;1.30;;;;;;;22.57;45.55;102009.72;4990977;28;20537;-75
2022/07/27 01:01:38;;;;;;;7.70;1.42;;;;;;;22.57;45.39;102006.16;4990874;28;20038;-75
2022/07/27 01:04:03;;;;;;;3.35;1.13;;;;;;;22.19;45.56;102018.47;4991081;28;20033;-75
2022/07/27 01:06:30;;;;;;;4.43;1.10;;;;;;;22.25;46.15;102011.09;4990932;28;20116;-74
2022/07/27 01:11:41;;;;;;;5.07;1.30;;;;;;;22.27;46.01;102006.16;4990026;28;20470;-74
2022/07/27 01:14:06;;;;;;;5.00;1.00;;;;;;;22.48;45.22;102013.25;4990732;28;20051;-73
2022/07/27 01:16:32;;;;;;;4.72;0.93;;;;;;;22.36;44.85;102010.81;4990872;28;20371;-74
2022/07/27 01:18:57;;;;;;;4.90;1.00;;;;;;;22.37;45.14;102014.34;4991938;28;20038;-73
2022/07/27 01:21:22;;;;;;;4.22;1.15;;;;;;;22.19;45.73;102012.19;4991138;28;20046;-72
2022/07/27 01:23:48;;;;;;;4.30;1.20;;;;;;;22.12;45.82;102012.44;4991431;28;20511;-73
2022/07/27 01:26:13;;;;;;;5.63;1.52;;;;;;;22.06;45.65;102012.72;4991392;28;20042;-74
2022/07/27 01:28:42;;;;;;;3.72;1.02;;;;;;;22.07;45.63;102008.91;4991257;28;20045;-74
2022/07/27 01:31:07;;;;;;;3.47;0.88;;;;;;;22.02;45.72;102020.66;4991662;28;20030;-73
2022/07/27 01:33:33;;;;;;;5.05;1.00;;;;;;;21.94;46.52;102015.72;4991173;28;20061;-73
2022/07/27 01:35:58;;;;;;;4.03;0.98;;;;;;;21.93;46.09;102018.72;4991233;28;20039;-73
2022/07/27 01:38:23;;;;;;;7.95;1.08;;;;;;;21.91;46.37;102021.75;4989586;28;20046;-74
2022/07/27 01:40:50;;;;;;;2.72;0.98;;;;;;;21.96;45.64;102015.44;4991302;28;20045;-72
2022/07/27 01:43:16;;;;;;;5.05;1.33;;;;;;;21.90;46.04;102013.78;4991181;28;20105;-74
2022/07/27 01:45:42;;;;;;;4.78;0.85;;;;;;;21.68;47.03;102014.00;4990931;28;20149;-72
2022/07/27 01:48:08;;;;;;;2.92;1.08;;;;;;;21.62;46.59;102004.97;4990969;28;20038;-74
2022/07/27 01:50:34;;;;;;;4.88;1.08;;;;;;;21.71;46.87;102003.34;4990688;28;20061;-73
2022/07/27 01:52:59;;;;;;;7.25;1.50;;;;;;;21.78;46.24;102001.16;4989139;28;20093;-74
2022/07/27 01:55:25;;;;;;;2.33;0.95;;;;;;;21.52;46.84;102004.13;4991172;28;20037;-73
2022/07/27 01:57:50;;;;;;;9.57;1.55;;;;;;;21.59;46.77;102001.94;4991279;28;20031;-75
2022/07/27 02:00:16;;;;;;;2.58;0.93;;;;;;;21.49;47.58;102002.75;4990440;28;20046;-73
2022/07/27 02:02:41;;;;;;;3.47;0.90;;;;;;;21.48;47.04;101998.34;4989340;28;20034;-75
2022/07/27 02:05:10;;;;;;;4.38;1.75;;;;;;;21.51;47.15;101997.81;4990526;28;20038;-74
2022/07/27 02:07:37;;;;;;;1.25;0.70;;;;;;;21.64;46.63;101993.78;4990358;28;20151;-72
2022/07/27 02:10:03;;;;;;;5.38;1.80;;;;;;;21.68;46.64;102000.31;4990960;28;20485;-74
2022/07/27 02:12:34;;;;;;;6.88;1.30;;;;;;;21.54;46.85;102007.41;4990079;28;20137;-74
2022/07/27 02:15:06;;;;;;;4.25;1.10;;;;;;;21.43;47.13;101998.34;4990704;28;20046;-73
2022/07/27 02:17:31;;;;;;;3.42;0.98;;;;;;;21.55;46.92;102006.31;4990485;28;20378;-75
2022/07/27 02:19:57;;;;;;;5.03;1.02;;;;;;;21.56;46.76;102010.72;4990483;28;20034;-74
2022/07/27 02:22:22;;;;;;;5.85;1.40;;;;;;;21.46;47.12;101997.78;4990430;28;20451;-72
2022/07/27 02:24:48;;;;;;;4.30;1.25;;;;;;;21.35;48.02;101996.13;4990526;28;20042;-75
2022/07/27 02:27:13;;;;;;;5.75;0.98;;;;;;;21.51;47.41;102000.56;4990009;28;20633;-72
2022/07/27 02:29:39;;;;;;;4.57;1.02;;;;;;;21.48;47.38;101998.34;4990101;28;20487;-75
2022/07/27 02:32:05;;;;;;;5.35;1.55;;;;;;;21.40;47.77;102004.38;4990287;28;20097;-74
2022/07/27 02:34:30;;;;;;;5.38;1.33;;;;;;;21.43;47.97;101995.63;4988351;28;20117;-74
2022/07/27 02:36:56;;;;;;;5.00;1.13;;;;;;;21.45;48.09;101992.59;4990500;28;20022;-73
2022/07/27 02:39:21;;;;;;;3.75;0.95;;;;;;;21.54;47.61;101996.47;4990228;28;20042;-74
2022/07/27 02:41:48;;;;;;;4.93;1.08;;;;;;;21.60;47.70;101998.13;4989175;28;20053;-74
2022/07/27 02:44:13;;;;;;;5.28;1.15;;;;;;;21.65;47.12;101998.13;4989658;28;20041;-76
2022/07/27 02:46:39;;;;;;;6.15;1.55;;;;;;;21.74;47.49;102001.97;4989885;28;20026;-73
2022/07/27 02:49:05;;;;;;;4.50;1.30;;;;;;;21.75;47.47;102003.63;4989998;28;20077;-75
2022/07/27 02:51:32;;;;;;;2.40;0.93;;;;;;;21.77;47.49;101993.22;4989490;28;20137;-73
2022/07/27 02:53:57;;;;;;;2.10;1.38;;;;;;;21.99;47.46;101998.50;4989747;28;20038;-75
2022/07/27 02:56:23;;;;;;;3.15;1.13;;;;;;;21.98;46.81;101992.19;4989750;28;20096;-75
2022/07/27 02:58:48;;;;;;;4.45;1.58;;;;;;;21.64;47.47;101991.03;4988795;28;20081;-74
2022/07/27 03:01:13;;;;;;;6.18;1.13;;;;;;;21.81;47.43;101997.09;4990343;28;20490;-69
2022/07/27 03:03:40;;;;;;;4.15;1.70;;;;;;;21.70;47.57;101998.13;4989603;28;20034;-70
2022/07/27 03:06:06;;;;;;;7.18;1.55;;;;;;;21.58;47.70;101995.66;4989698;28;20633;-69
2022/07/27 03:08:32;;;;;;;4.25;1.10;;;;;;;21.76;47.44;102000.59;4989643;28;20042;-69
2022/07/27 03:10:57;;;;;;;7.50;1.48;;;;;;;21.57;48.48;101996.75;4989193;28;20041;-69
2022/07/27 03:13:23;;;;;;;5.30;1.25;;;;;;;21.68;47.91;101997.56;5004506;28;20050;-71
2022/07/27 03:15:48;;;;;;;6.53;1.45;;;;;;;21.92;47.90;102000.66;4989737;28;20041;-69
2022/07/27 03:18:14;;;;;;;1.88;0.90;;;;;;;21.86;47.61;102004.50;4989485;28;20049;-69
2022/07/27 03:20:39;;;;;;;2.70;1.00;;;;;;;21.93;47.52;101997.66;4988426;28;20049;-69
2022/07/27 03:23:04;;;;;;;5.85;0.98;;;;;;;21.69;48.71;102007.44;4988152;28;20042;-70
2022/07/27 03:25:30;;;;;;;4.10;1.13;;;;;;;21.89;48.17;102003.94;4988303;28;20038;-69
2022/07/27 03:27:55;;;;;;;4.03;1.23;;;;;;;21.67;48.78;102004.97;4988217;28;20133;-70
2022/07/27 03:30:21;;;;;;;5.15;1.70;;;;;;;21.87;48.26;102008.88;4986924;28;20038;-68
2022/07/27 03:32:47;;;;;;;6.05;1.20;;;;;;;21.63;48.31;102003.06;4988038;28;20526;-68
2022/07/27 03:35:13;;;;;;;6.28;1.20;;;;;;;22.09;47.71;102004.81;4988218;28;20463;-69
2022/07/27 03:37:38;;;;;;;3.75;1.33;;;;;;;22.09;47.26;102001.22;4988338;28;20030;-69
2022/07/27 03:40:04;;;;;;;3.25;0.85;;;;;;;21.91;47.78;102008.06;4988727;28;20042;-70
2022/07/27 03:42:30;;;;;;;6.50;1.88;;;;;;;22.24;47.01;102006.69;4988206;28;20035;-68
2022/07/27 03:44:55;;;;;;;4.07;1.33;;;;;;;22.06;47.07;102013.53;4988504;28;20050;-73
2022/07/27 03:47:20;;;;;;;5.18;1.35;;;;;;;22.00;47.45;102011.06;4988442;28;20280;-70
2022/07/27 03:49:46;;;;;;;8.40;1.23;;;;;;;21.88;47.19;102013.28;4988027;28;20092;-70
2022/07/27 03:52:12;;;;;;;8.18;1.52;;;;;;;22.16;46.65;102012.72;4988220;28;20279;-70
2022/07/27 03:54:38;;;;;;;2.92;1.42;;;;;;;22.25;46.70;102008.34;4989179;28;20560;-69
2022/07/27 03:57:03;;;;;;;2.75;1.23;;;;;;;22.33;46.87;102018.72;4991216;28;20042;-69
2022/07/27 03:59:28;;;;;;;2.53;1.40;;;;;;;22.11;46.68;102026.41;4991740;28;20074;-70
2022/07/27 04:01:54;;;;;;;6.65;1.77;;;;;;;22.12;47.13;102022.56;4983078;28;20027;-69
2022/07/27 04:04:19;;;;;;;2.30;1.40;;;;;;;22.15;46.81;102022.84;4980566;28;20053;-70
2022/07/27 04:06:45;;;;;;;5.07;1.20;;;;;;;22.20;46.75;102027.50;4977980;28;20050;-70
2022/07/27 04:09:10;;;;;;;7.13;1.90;;;;;;;22.19;46.67;102025.88;4992173;28;20045;-69
2022/07/27 04:11:36;;;;;;;4.45;1.52;;;;;;;22.08;47.13;102019.56;4977797;28;20050;-69
2022/07/27 04:14:02;;;;;;;5.93;1.63;;;;;;;22.01;47.42;102019.03;4991885;28;20126;-69
2022/07/27 04:16:27;;;;;;;5.32;1.15;;;;;;;22.02;47.48;102020.66;5004601;28;20081;-69
2022/07/27 04:18:53;;;;;;;6.97;1.48;;;;;;;21.98;47.38;102024.19;5010660;28;20038;-68
2022/07/27 04:21:18;;;;;;;6.20;2.15;;;;;;;22.07;47.54;102030.81;5011258;28;20083;-70
2022/07/27 04:23:43;;;;;;;3.50;1.40;;;;;;;22.09;47.42;102023.13;4992547;28;20053;-69
2022/07/27 04:26:09;;;;;;;6.18;1.90;;;;;;;21.93;47.72;102018.72;4989892;28;20042;-69
2022/07/27 04:28:34;;;;;;;6.07;2.00;;;;;;;22.08;47.90;102016.00;4990572;28;20076;-70
2022/07/27 04:30:59;;;;;;;3.38;1.50;;;;;;;22.04;47.60;102017.63;4991684;28;20033;-69
2022/07/27 04:33:25;;;;;;;5.50;2.10;;;;;;;21.92;48.60;102014.34;4991071;28;20034;-70
2022/07/27 04:35:50;;;;;;;4.30;1.70;;;;;;;21.96;48.14;102021.75;4991319;28;20514;-69
2022/07/27 04:38:16;;;;;;;2.50;1.50;;;;;;;21.63;48.63;102019.47;4991008;28;20049;-70
2022/07/27 04:40:41;;;;;;;4.13;2.20;;;;;;;21.54;48.94;102027.38;4991000;28;20154;-69
2022/07/27 04:43:06;;;;;;;4.22;1.88;;;;;;;21.77;49.04;102026.06;4990755;28;20035;-69
2022/07/27 04:45:32;;;;;;;2.55;1.38;;;;;;;21.75;49.47;102031.81;4990750;28;20068;-68
2022/07/27 04:47:57;;;;;;;6.40;1.80;;;;;;;21.80;49.33;102033.72;4990922;28;20041;-71
2022/07/27 04:50:23;;;;;;;5.32;1.77;;;;;;;21.83;49.08;102034.06;4990692;28;20046;-68
2022/07/27 04:52:48;;;;;;;2.47;1.40;;;;;;;21.85;49.33;102042.00;4991072;28;20077;-70
2022/07/27 04:55:14;;;;;;;3.90;1.52;;;;;;;21.96;48.94;102038.16;4990836;28;20095;-69
2022/07/27 04:57:42;;;;;;;4.10;1.38;;;;;;;21.81;49.15;102041.72;4990066;28;20090;-68
2022/07/27 05:00:10;;;;;;;3.90;1.45;;;;;;;22.06;48.84;102042.84;4990720;28;20038;-69
2022/07/27 05:02:39;;;;;;;7.43;1.63;;;;;;;21.97;48.51;102048.03;4990362;28;20038;-69
2022/07/27 05:05:06;;;;;;;7.18;1.40;;;;;;;22.23;48.10;102048.88;4989922;28;20183;-69
2022/07/27 05:07:31;;;;;;;4.82;2.30;;;;;;;21.79;48.49;102046.59;4990404;28;20104;-70
2022/07/27 05:09:57;;;;;;;4.22;1.30;;;;;;;22.02;47.75;102053.50;4990790;28;20030;-71
2022/07/27 05:12:22;;;;;;;7.82;2.45;;;;;;;22.27;47.09;102053.53;4989811;28;20054;-70
2022/07/27 05:14:47;;;;;;;7.18;1.42;;;;;;;22.28;47.43;102055.19;4990491;28;20058;-70
2022/07/27 05:17:13;;;;;;;8.68;3.50;;;;;;;22.12;47.85;102055.44;5005153;28;20486;-69
2022/07/27 05:19:38;;;;;;;11.25;3.55;;;;;;;22.27;47.55;102053.53;4990061;28;20030;-70
2022/07/27 05:22:04;;;;;;;5.25;1.35;;;;;;;22.57;47.13;102050.00;4990562;28;20470;-68
2022/07/27 05:24:29;;;;;;;4.70;1.80;;;;;;;22.48;46.80;102046.97;4988275;28;20038;-69
2022/07/27 05:26:54;;;;;;;2.78;1.42;;;;;;;22.57;46.22;102056.28;4989688;28;20034;-69
2022/07/27 05:29:20;;;;;;;6.75;1.42;;;;;;;22.46;46.01;102062.03;4990211;28;20030;-69
2022/07/27 05:31:45;;;;;;;4.97;1.10;;;;;;;22.35;45.77;102063.09;4989834;28;20583;-69
2022/07/27 05:34:11;;;;;;;5.00;1.30;;;;;;;22.66;45.57;102060.13;4990569;28;20030;-68
2022/07/27 05:36:36;;;;;;;8.70;2.17;;;;;;;22.73;45.30;102061.75;4989970;28;20049;-69
2022/07/27 05:39:02;;;;;;;8.70;1.35;;;;;;;22.64;44.70;102058.78;4988430;28;20210;-69
2022/07/27 05:41:28;;;;;;;10.30;1.73;;;;;;;22.42;43.59;102064.50;4989707;28;20050;-70
2022/07/27 05:43:54;;;;;;;10.00;1.33;;;;;;;22.34;43.68;102070.53;4990162;28;20081;-69
2022/07/27 05:46:20;;;;;;;9.95;1.60;;;;;;;22.50;43.26;102074.09;4990600;28;20535;-69
2022/07/27 05:48:45;;;;;;;10.90;1.10;;;;;;;22.38;42.47;102079.84;4989426;28;20166;-71
2022/07/27 05:51:11;;;;;;;7.72;1.42;;;;;;;22.01;43.25;102084.72;4989586;28;20567;-67
2022/07/27 05:53:36;;;;;;;4.40;1.05;;;;;;;22.01;43.13;102079.25;4989376;28;20046;-69
2022/07/27 05:56:02;;;;;;;6.18;1.00;;;;;;;21.93;42.72;102084.44;4989748;28;20042;-70
2022/07/27 05:58:28;;;;;;;7.80;0.90;;;;;;;21.57;43.13;102089.75;4989788;28;20026;-70
2022/07/27 06:00:55;;;;;;;5.05;1.30;;;;;;;21.90;42.82;102084.94;4989565;28;20041;-70
2022/07/27 06:03:21;;;;;;;3.92;1.00;;;;;;;22.08;43.30;102088.00;4990021;28;20465;-71
2022/07/27 06:05:46;;;;;;;4.03;1.38;;;;;;;21.89;43.08;102094.28;4989139;28;20043;-71
2022/07/27 06:08:11;;;;;;;6.78;1.30;;;;;;;22.04;42.86;102092.38;4989490;28;20105;-69
2022/07/27 06:10:39;;;;;;;5.75;1.00;;;;;;;21.88;42.54;102095.38;4989255;28;20043;-69
2022/07/27 06:13:06;;;;;;;7.40;1.05;;;;;;;21.93;43.09;102098.94;4989003;28;20787;-69
2022/07/27 06:15:32;;;;;;;6.45;1.30;;;;;;;21.89;42.21;102091.53;4979112;28;20033;-69
2022/07/27 06:17:58;;;;;;;4.75;1.00;;;;;;;22.04;41.75;102095.13;4988555;28;20038;-70
2022/07/27 06:20:24;;;;;;;3.42;1.10;;;;;;;21.28;43.33;102109.59;4987515;28;20453;-68
2022/07/27 06:22:51;;;;;;;8.73;1.33;;;;;;;21.75;42.02;102107.63;4989473;28;20512;-70
2022/07/27 06:25:18;;;;;;;2.30;1.00;;;;;;;21.80;41.56;102102.13;4995873;28;20041;-68
2022/07/27 06:27:44;;;;;;;5.65;1.08;;;;;;;21.98;41.45;102103.59;5008347;28;20034;-69
2022/07/27 06:30:12;;;;;;;6.35;0.93;;;;;;;22.09;41.42;102097.06;5008502;28;20045;-70
2022/07/27 06:32:38;;;;;;;5.75;1.90;;;;;;;22.13;40.94;102098.16;5008696;28;20046;-69
2022/07/27 06:35:04;;;;;;;2.33;0.65;;;;;;;21.68;41.94;102105.13;5008342;28;20085;-71
2022/07/27 06:37:30;;;;;;;5.90;0.77;;;;;;;21.95;41.86;102101.41;5008547;28;20430;-70
2022/07/27 06:39:56;;;;;;;4.28;1.10;;;;;;;22.05;41.41;102106.91;5008513;28;20084;-69
2022/07/27 06:42:21;;;;;;;4.70;1.00;;;;;;;22.49;40.75;102103.38;5008690;28;20038;-68
2022/07/27 06:44:47;;;;;;;9.25;2.50;;;;;;;21.79;42.17;102101.34;5008446;28;20037;-69
2022/07/27 06:47:12;;;;;;;3.72;1.33;;;;;;;22.47;41.29;102099.28;5008282;28;20049;-70
2022/07/27 06:49:38;;;;;;;4.97;1.73;;;;;;;22.80;40.71;102098.75;5008317;28;20482;-70
2022/07/27 06:52:03;;;;;;;4.07;1.20;;;;;;;23.01;40.12;102100.38;5009200;28;20029;-70
2022/07/27 06:54:29;;;;;;;5.82;1.30;;;;;;;22.45;41.71;102105.03;5008473;28;20351;-69
2022/07/27 06:56:54;;;;;;;6.47;0.98;;;;;;;22.26;42.62;102105.84;5008089;28;20044;-69
2022/07/27 06:59:20;;;;;;;9.80;1.20;;;;;;;22.18;43.18;102104.47;5008727;28;20042;-69
2022/07/27 07:01:45;;;;;;;3.38;1.48;;;;;;;22.21;42.35;102100.38;5008199;28;20383;-68
2022/07/27 07:04:11;;;;;;;4.88;1.33;;;;;;;22.42;41.93;102102.84;5002266;28;20022;-69
2022/07/27 07:06:36;;;;;;;6.80;1.35;;;;;;;22.28;42.57;102101.75;4988359;28;20081;-68
2022/07/27 07:09:02;;;;;;;6.28;1.25;;;;;;;22.73;41.51;102111.91;4988725;28;20043;-70
2022/07/27 07:11:28;;;;;;;4.78;1.15;;;;;;;21.96;43.46;102109.34;4978048;28;20214;-70
2022/07/27 07:13:54;;;;;;;3.92;1.10;;;;;;;22.84;41.31;102105.31;4968651;28;20039;-70
2022/07/27 07:16:19;;;;;;;8.25;1.88;;;;;;;22.57;42.01;102105.63;4980142;28;20045;-71
2022/07/27 07:18:45;;;;;;;5.63;1.42;;;;;;;22.99;41.59;102108.06;4988091;28;20085;-70
2022/07/27 07:21:10;;;;;;;3.13;1.13;;;;;;;22.51;42.42;102109.41;4988091;28;20039;-70
2022/07/27 07:23:36;;;;;;;6.05;1.27;;;;;;;23.53;40.09;102109.00;4988036;28;20045;-71
2022/07/27 07:26:01;;;;;;;9.15;1.35;;;;;;;23.37;39.99;102110.16;4999857;28;20049;-69
2022/07/27 07:28:27;;;;;;;5.60;1.27;;;;;;;23.10;41.03;102115.16;5009151;28;20080;-69
2022/07/27 07:30:52;;;;;;;4.38;1.40;;;;;;;23.11;40.84;102111.31;5012174;28;20088;-70
2022/07/27 07:33:17;;;;;;;7.78;1.30;;;;;;;23.24;40.82;102113.47;5012029;28;20046;-69
2022/07/27 07:35:43;;;;;;;11.73;1.38;;;;;;;23.34;40.86;102109.91;5011699;28;20418;-70
2022/07/27 07:38:08;;;;;;;9.88;1.30;;;;;;;23.00;40.65;102112.41;5011539;28;20041;-68
2022/07/27 07:40:34;;;;;;;4.28;1.58;;;;;;;23.35;39.38;102109.63;5011568;28;20319;-68
2022/07/27 07:43:02;;;;;;;3.90;1.08;;;;;;;22.71;40.54;102122.34;5010452;28;20042;-74
2022/07/27 07:45:30;;;;;;;6.40;2.05;;;;;;;22.56;40.61;102122.31;5011650;28;20034;-73
2022/07/27 07:47:56;;;;;;;9.70;1.77;;;;;;;22.83;39.62;102117.41;5011565;28;20137;-73
2022/07/27 07:50:22;;;;;;;7.10;1.13;;;;;;;22.89;39.67;102121.78;5011886;28;20045;-75
2022/07/27 07:52:49;;;;;;;7.72;1.00;;;;;;;23.71;38.19;102120.44;5012169;28;20132;-73
2022/07/27 07:55:17;;;;;;;8.65;1.45;;;;;;;23.87;37.90;102120.09;4987634;28;20038;-76
2022/07/27 07:57:43;;;;;;;5.45;1.40;;;;;;;22.93;38.22;102113.81;4980917;28;20039;-73
2022/07/27 08:00:09;;;;;;;5.47;0.93;;;;;;;23.83;36.83;102115.47;5007053;28;20045;-74
2022/07/27 08:02:45;;;;;;;3.33;1.05;;;;;;;24.07;36.80;102117.28;5002672;28;20049;-74
2022/07/27 08:05:11;;;;;;;3.40;0.88;;;;;;;24.00;37.12;102124.19;5002826;28;20397;-72
2022/07/27 08:07:37;;;;;;;6.47;1.30;;;;;;;23.18;38.25;102125.56;5006338;28;20370;-73
2022/07/27 08:10:03;;;;;;;3.83;0.82;;;;;;;23.55;37.27;102128.75;5011293;28;20038;-73
2022/07/27 08:12:29;;;;;;;4.00;1.05;;;;;;;23.55;37.15;102133.41;5000421;28;20048;-74
2022/07/27 08:14:54;;;;;;;8.05;1.30;;;;;;;24.05;35.72;102137.91;5010908;28;20029;-73
2022/07/27 08:17:19;;;;;;;6.43;0.95;;;;;;;24.05;35.58;102133.22;4992362;28;20049;-71
2022/07/27 08:19:45;;;;;;;6.60;0.93;;;;;;;24.30;35.23;102129.47;4991435;28;20613;-73
2022/07/27 08:22:10;;;;;;;3.80;0.95;;;;;;;24.70;35.14;102129.19;4990404;28;20076;-74
2022/07/27 08:24:35;;;;;;;4.22;1.00;;;;;;;24.88;34.64;102122.19;4991470;28;20368;-74
2022/07/27 08:27:01;;;;;;;4.70;1.15;;;;;;;24.60;35.51;102132.00;4997290;28;20537;-75
2022/07/27 08:29:27;;;;;;;5.40;1.27;;;;;;;24.68;34.58;102122.31;5008239;28;20038;-73
2022/07/27 08:31:52;;;;;;;4.13;0.80;;;;;;;24.90;33.64;102129.00;5010462;28;20351;-75
2022/07/27 08:34:17;;;;;;;4.63;1.00;;;;;;;25.63;32.74;102128.81;5026135;28;20038;-74
2022/07/27 08:36:43;;;;;;;6.57;1.00;;;;;;;25.65;33.14;102129.34;5010300;28;20493;-73
2022/07/27 08:39:08;;;;;;;4.50;1.00;;;;;;;25.11;33.70;102127.72;5010084;28;20042;-71
2022/07/27 08:41:37;;;;;;;8.65;1.15;;;;;;;25.14;33.01;102132.63;5009282;28;20041;-75
2022/07/27 08:44:05;;;;;;;5.70;0.80;;;;;;;25.66;31.75;102129.03;5005023;28;20038;-74
2022/07/27 08:46:31;;;;;;;10.18;1.58;;;;;;;24.47;34.01;102123.59;5009805;28;20026;-72
2022/07/27 08:49:01;;;;;;;4.25;0.73;;;;;;;24.56;34.75;102125.44;5010615;28;20486;-73
2022/07/27 08:51:27;;;;;;;5.32;1.10;;;;;;;24.30;34.77;102130.31;4999899;28;20034;-72
2022/07/27 08:53:53;;;;;;;5.53;1.17;;;;;;;25.06;33.49;102127.75;5010276;28;20128;-74
2022/07/27 08:56:20;;;;;;;4.30;0.70;;;;;;;25.85;32.35;102116.09;5004290;28;20046;-73
2022/07/27 08:58:46;;;;;;;2.78;1.00;;;;;;;26.01;32.08;102122.22;4990464;28;20034;-73
2022/07/27 09:01:11;;;;;;;6.43;1.20;;;;;;;25.12;33.00;102125.75;4991049;28;20128;-73
2022/07/27 09:03:36;;;;;;;3.67;0.80;;;;;;;24.80;34.42;102128.31;4996528;28;20029;-74
2022/07/27 09:06:03;;;;;;;4.90;0.90;;;;;;;25.09;33.62;102135.44;5008003;28;20042;-72
2022/07/27 09:08:30;;;;;;;8.02;1.27;;;;;;;25.45;32.79;102135.91;4987626;28;20419;-71
2022/07/27 09:10:58;;;;;;;4.05;0.85;;;;;;;25.98;32.05;102125.59;5005654;28;20040;-74
2022/07/27 09:13:29;;;;;;;4.60;1.33;;;;;;;26.43;31.18;102116.66;5009226;28;20140;-74
2022/07/27 09:15:56;;;;;;;6.97;1.38;;;;;;;26.21;31.70;102126.63;5009038;28;20493;-74
2022/07/27 09:18:24;;;;;;;5.45;0.85;;;;;;;26.00;32.23;102123.34;5008958;28;20042;-75
2022/07/27 09:21:16;;;;;;;3.95;1.00;;;;;;;25.72;31.15;102132.53;5003607;28;20120;-74
2022/07/27 09:23:44;;;;;;;6.30;1.55;;;;;;;24.95;32.67;102126.22;5006374;28;20106;-74
2022/07/27 09:26:18;;;;;;;4.45;1.10;;;;;;;25.56;31.54;102131.09;5008822;28;20033;-73
2022/07/27 09:28:44;;;;;;;4.60;0.85;;;;;;;25.65;30.64;102132.09;5006867;28;20022;-73
2022/07/27 09:31:11;;;;;;;1.85;0.75;;;;;;;24.36;32.62;102131.91;5009312;28;20049;-72
2022/07/27 09:33:48;;;;;;;2.47;0.90;;;;;;;24.67;33.16;102131.69;5023564;28;20133;-74
2022/07/27 09:36:15;;;;;;;4.15;1.10;;;;;;;24.74;34.07;102123.94;5004467;28;20502;-72
2022/07/27 09:39:04;;;;;;;2.92;0.90;;;;;;;25.28;33.63;102130.00;5008789;28;20026;-73
2022/07/27 09:41:47;;;;;;;5.00;1.58;;;;;;;25.85;32.20;102126.28;5008482;28;20040;-72
2022/07/27 09:44:13;;;;;;;3.63;0.82;;;;;;;26.02;29.42;102123.88;4994715;28;20042;-69
2022/07/27 09:46:42;;;;;;;2.72;0.73;;;;;;;26.75;29.47;102115.88;4989621;28;20511;-73
2022/07/27 09:49:29;;;;;;;6.53;0.93;;;;;;;25.70;31.37;102118.25;4993114;28;20150;-71
2022/07/27 09:51:55;;;;;;;5.53;1.17;;;;;;;26.34;29.78;102121.19;5003791;28;20076;-74
2022/07/27 09:54:22;;;;;;;4.13;1.02;;;;;;;26.68;29.77;102115.41;5008701;28;20038;-73
2022/07/27 09:57:01;;;;;;;2.95;0.80;;;;;;;27.89;27.40;102107.53;5008925;28;20037;-75
2022/07/27 09:59:28;;;;;;;2.13;0.65;;;;;;;26.73;28.93;102101.56;5003485;28;20038;-73
2022/07/27 10:01:55;;;;;;;1.92;0.70;;;;;;;27.02;29.27;102107.66;5008379;28;20029;-74
2022/07/27 10:04:21;;;;;;;6.60;0.70;;;;;;;26.42;28.84;102117.75;5003813;28;20116;-74
2022/07/27 10:06:47;;;;;;;2.53;0.70;;;;;;;27.34;28.25;102109.53;5008391;28;20041;-75
2022/07/27 10:09:13;;;;;;;6.75;0.85;;;;;;;26.28;30.38;102122.38;5008591;28;20413;-74
2022/07/27 10:11:39;;;;;;;5.68;0.95;;;;;;;25.30;31.62;102126.97;5009625;28;20092;-75
2022/07/27 10:14:05;;;;;;;6.18;1.25;;;;;;;26.52;30.53;102122.28;5010014;28;20680;-75
2022/07/27 10:16:32;;;;;;;8.60;0.82;;;;;;;26.98;29.02;102117.66;4997670;28;20034;-75
2022/07/27 10:19:14;;;;;;;4.22;0.60;;;;;;;27.30;28.21;102114.81;4989952;28;20470;-76
2022/07/27 10:21:45;;;;;;;2.95;0.60;;;;;;;27.67;27.81;102120.16;4989173;28;20658;-76
2022/07/27 10:24:24;;;;;;;10.10;0.85;;;;;;;26.92;28.83;102116.13;4989077;28;20031;-74
2022/07/27 10:26:50;;;;;;;4.57;0.60;;;;;;;26.20;29.11;102122.25;4989385;28;20065;-76
2022/07/27 10:29:17;;;;;;;1.95;0.80;;;;;;;25.68;29.36;102121.31;4988905;28;20042;-76
2022/07/27 10:31:52;;;;;;;3.50;0.57;;;;;;;26.58;28.76;102118.31;4988201;28;20038;-75
2022/07/27 10:34:35;;;;;;;7.22;1.58;;;;;;;26.37;29.44;102125.28;4989810;28;20030;-76
2022/07/27 10:37:24;;;;;;;13.68;1.23;;;;;;;25.79;30.43;102127.47;4991112;28;20550;-74
2022/07/27 10:40:33;;;;;;;5.50;1.00;;;;;;;26.03;30.40;102119.97;4980395;28;20045;-76
2022/07/27 10:42:37;;;;;;;5.68;0.80;;;;;;;25.62;30.73;102125.22;4984440;28;20430;-76
2022/07/27 10:45:06;;;;;;;1.95;0.68;;;;;;;25.41;31.74;102120.25;4982615;28;20065;-75
2022/07/27 10:47:34;;;;;;;10.32;0.95;;;;;;;25.36;31.86;102131.28;5003172;28;20161;-75
2022/07/27 10:50:15;;;;;;;4.68;1.05;;;;;;;25.75;31.49;102129.22;5002837;28;20030;-75
2022/07/27 10:52:49;;;;;;;2.97;0.95;;;;;;;25.93;32.00;102120.13;4974501;28;20273;-77
2022/07/27 10:55:43;;;;;;;8.77;1.00;;;;;;;27.08;29.92;102127.69;4990607;28;20042;-76
2022/07/27 10:58:08;;;;;;;6.35;1.17;;;;;;;26.60;30.53;102122.44;4990919;28;20049;-78
2022/07/27 11:00:49;;;;;;;4.50;0.80;;;;;;;27.61;28.54;102129.69;4983270;28;20117;-76
2022/07/27 11:03:35;;;;;;;4.35;0.98;;;;;;;27.06;29.93;102129.94;4985439;28;20105;-76
2022/07/27 11:06:06;;;;;;;3.55;0.82;;;;;;;26.75;30.00;102124.94;4966071;28;20170;-76
2022/07/27 11:08:37;;;;;;;5.47;0.90;;;;;;;26.06;32.47;102125.75;4969487;28;20125;-76
2022/07/27 11:11:04;;;;;;;6.13;1.70;;;;;;;26.09;31.61;102122.41;4985144;28;20070;-75
2022/07/27 11:13:32;;;;;;;4.07;1.42;;;;;;;26.64;31.50;102125.41;4984339;28;20077;-73
2022/07/27 11:16:03;;;;;;;3.20;0.80;;;;;;;26.72;32.06;102114.53;4987778;28;20084;-73
2022/07/27 11:18:32;;;;;;;4.93;0.98;;;;;;;26.47;31.70;102116.88;4999632;28;20141;-75
2022/07/27 11:21:19;;;;;;;1.67;0.50;;;;;;;26.50;32.17;102114.31;5004597;28;20046;-74
2022/07/27 11:23:47;;;;;;;2.53;0.85;;;;;;;27.51;30.41;102121.59;5004027;28;20176;-73
2022/07/27 11:26:13;;;;;;;5.15;0.95;;;;;;;27.24;31.36;102121.59;5003761;28;20049;-76